D. Carlos I — CTHJ — position and weather

sailwx.info

Track history (hours):
 
Tides and Currents Weather Stations Pressure Air Temp Water Temp Dewpoint Dewpoint Depression Visibility Wind Speed Wind Dir Waves Ship Positions

Oceanographic research ship D. Carlos I (Portugal)

Detailed information on ship capabilities available from University of Delaware's Ocean Information Center.

Last reported at 2019-Aug-22 09:00 UTC. Time now 2019-Aug-22 09:08 UTC.
Position N 37°42' W 025°36'.

Length 69 m; draft 5.6 m.

MMSI: 263144000.

Date/timePositionNaut miles runAvg speedWind from/ knotsBaromVisibWave heightAir tempDewpointWater temp
2019-Aug-22 09:00N 37°42' W 025°36'3 6.9
2019-Aug-22 08:30N 37°44' W 025°39'0 0.8
2019-Aug-22 08:00N 37°44' W 025°40'0 0.0
2019-Aug-22 07:30N 37°44' W 025°40'0 0.0
2019-Aug-22 07:00N 37°44' W 025°40'  
2019-Aug-19 17:33N 37°44' W 025°40'0 0.1
2019-Aug-19 17:30N 37°44' W 025°40'0 0.2
2019-Aug-19 17:00N 37°44' W 025°39'2 3.4
2019-Aug-19 16:30N 37°43' W 025°41'4 7.9
2019-Aug-19 16:01N 37°42' W 025°45'4 7.6
2019-Aug-19 15:30N 37°41' W 025°50'3 6.8
2019-Aug-19 15:00N 37°41' W 025°54'3 6.8
2019-Aug-19 14:30N 37°43' W 025°58'4 7.0
2019-Aug-19 14:00N 37°45' W 026°01'4 7.5
2019-Aug-19 13:30N 37°48' W 026°05'4 7.6
2019-Aug-19 13:01N 37°50' W 026°09'3 6.8
2019-Aug-19 12:30N 37°52' W 026°11'3 6.9
2019-Aug-19 12:00N 37°55' W 026°14'3 6.8
2019-Aug-19 11:30N 37°58' W 026°17'3 6.7
2019-Aug-19 11:00N 38°00' W 026°20'3 6.7
2019-Aug-19 10:31N 38°03' W 026°23'3 6.9
2019-Aug-19 10:00N 38°05' W 026°26'4 7.1
2019-Aug-19 09:30N 38°07' W 026°30'3 6.7
2019-Aug-19 09:01N 38°08' W 026°34'3 6.4
2019-Aug-19 08:30N 38°10' W 026°37'3 6.5
2019-Aug-19 08:00N 38°12' W 026°41'3 6.1
2019-Aug-19 07:31N 38°13' W 026°44'3 6.4
2019-Aug-19 07:00N 38°14' W 026°48'3 6.6
2019-Aug-19 06:31N 38°16' W 026°52'3 6.7
2019-Aug-19 06:00N 38°18' W 026°56'3 6.7
2019-Aug-19 05:30N 38°19' W 026°59'3 6.6
2019-Aug-19 05:00N 38°20' W 027°04'3 6.8
2019-Aug-19 04:31N 38°20' W 027°08'3 6.9
2019-Aug-19 04:01N 38°21' W 027°12'4 7.1
2019-Aug-19 03:31N 38°22' W 027°16'4 7.4
2019-Aug-19 03:00N 38°23' W 027°21'3 6.9
2019-Aug-19 02:30N 38°24' W 027°25'3 6.8
2019-Aug-19 02:00N 38°26' W 027°29'3 6.7
2019-Aug-19 01:30N 38°28' W 027°32'3 6.8
2019-Aug-19 01:00N 38°30' W 027°36'11 7.4
2019-Aug-18 23:27N 38°37' W 027°47'6 7.2
2019-Aug-18 22:35N 38°40' W 027°55'11 7.2
2019-Aug-18 21:07N 38°44' W 028°07'1 7.5
2019-Aug-18 20:57N 38°44' W 028°09'3 7.4
2019-Aug-18 20:30N 38°45' W 028°13'3 6.9
2019-Aug-18 20:01N 38°46' W 028°17'3 6.7
2019-Aug-18 19:31N 38°47' W 028°21'4 7.5
2019-Aug-18 19:00N 38°45' W 028°25'4 8.3
2019-Aug-18 18:30N 38°41' W 028°28'4 8.0
2019-Aug-18 18:00N 38°38' W 028°30'4 8.4
2019-Aug-18 17:30N 38°34' W 028°33'3 6.8
2019-Aug-18 17:00N 38°32' W 028°37'1 1.0
2019-Aug-18 16:28N 38°32' W 028°37'0 0.0
2019-Aug-17 16:02N 38°32' W 028°37'0 0.0
2019-Aug-17 15:59N 38°32' W 028°37'0 0.0
2019-Aug-17 15:30N 38°32' W 028°37'0 0.1
2019-Aug-17 15:00N 38°32' W 028°37'2 3.0
2019-Aug-17 14:30N 38°32' W 028°36'3 6.0
2019-Aug-17 14:00N 38°30' W 028°39'4 7.3
2019-Aug-17 13:30N 38°30' W 028°43'4 7.2
2019-Aug-17 13:00N 38°31' W 028°48'103 8.4
2019-Aug-17 00:51N 39°29' W 030°37'15 8.8
2019-Aug-16 23:07N 39°35' W 030°55'3 8.7
2019-Aug-16 22:47N 39°36' W 030°58'3 8.5
2019-Aug-16 22:29N 39°37' W 031°01'4 8.3
2019-Aug-16 22:00N 39°39' W 031°06'1 2.3
2019-Aug-16 21:30N 39°40' W 031°06'50 3.1
2019-Aug-16 05:16N 38°50' W 031°07'  
Track history (hours):
 
Tides and Currents Weather Stations Pressure Air Temp Water Temp Dewpoint Dewpoint Depression Visibility Wind Speed Wind Dir Waves Ship Positions

Oceanographic research ship D. Carlos I (Portugal)

Detailed information on ship capabilities available from University of Delaware's Ocean Information Center.

Last reported at 2019-Aug-22 09:00 UTC. Time now 2019-Aug-22 09:08 UTC.
Position N 37°42' W 025°36'.

Length 69 m; draft 5.6 m.

MMSI: 263144000.

Date/timePositionNaut miles runAvg speedWind from/ knotsBaromVisibWave heightAir tempDewpointWater temp
2019-Aug-22 09:00N 37°42' W 025°36'3 6.9
2019-Aug-22 08:30N 37°44' W 025°39'0 0.8
2019-Aug-22 08:00N 37°44' W 025°40'0 0.0
2019-Aug-22 07:30N 37°44' W 025°40'0 0.0
2019-Aug-22 07:00N 37°44' W 025°40'  
2019-Aug-19 17:33N 37°44' W 025°40'0 0.1
2019-Aug-19 17:30N 37°44' W 025°40'0 0.2
2019-Aug-19 17:00N 37°44' W 025°39'2 3.4
2019-Aug-19 16:30N 37°43' W 025°41'4 7.9
2019-Aug-19 16:01N 37°42' W 025°45'4 7.6
2019-Aug-19 15:30N 37°41' W 025°50'3 6.8
2019-Aug-19 15:00N 37°41' W 025°54'3 6.8
2019-Aug-19 14:30N 37°43' W 025°58'4 7.0
2019-Aug-19 14:00N 37°45' W 026°01'4 7.5
2019-Aug-19 13:30N 37°48' W 026°05'4 7.6
2019-Aug-19 13:01N 37°50' W 026°09'3 6.8
2019-Aug-19 12:30N 37°52' W 026°11'3 6.9
2019-Aug-19 12:00N 37°55' W 026°14'3 6.8
2019-Aug-19 11:30N 37°58' W 026°17'3 6.7
2019-Aug-19 11:00N 38°00' W 026°20'3 6.7
2019-Aug-19 10:31N 38°03' W 026°23'3 6.9
2019-Aug-19 10:00N 38°05' W 026°26'4 7.1
2019-Aug-19 09:30N 38°07' W 026°30'3 6.7
2019-Aug-19 09:01N 38°08' W 026°34'3 6.4
2019-Aug-19 08:30N 38°10' W 026°37'3 6.5
2019-Aug-19 08:00N 38°12' W 026°41'3 6.1
2019-Aug-19 07:31N 38°13' W 026°44'3 6.4
2019-Aug-19 07:00N 38°14' W 026°48'3 6.6
2019-Aug-19 06:31N 38°16' W 026°52'3 6.7
2019-Aug-19 06:00N 38°18' W 026°56'3 6.7
2019-Aug-19 05:30N 38°19' W 026°59'3 6.6
2019-Aug-19 05:00N 38°20' W 027°04'3 6.8
2019-Aug-19 04:31N 38°20' W 027°08'3 6.9
2019-Aug-19 04:01N 38°21' W 027°12'4 7.1
2019-Aug-19 03:31N 38°22' W 027°16'4 7.4
2019-Aug-19 03:00N 38°23' W 027°21'3 6.9
2019-Aug-19 02:30N 38°24' W 027°25'3 6.8
2019-Aug-19 02:00N 38°26' W 027°29'3 6.7
2019-Aug-19 01:30N 38°28' W 027°32'3 6.8
2019-Aug-19 01:00N 38°30' W 027°36'11 7.4
2019-Aug-18 23:27N 38°37' W 027°47'6 7.2
2019-Aug-18 22:35N 38°40' W 027°55'11 7.2
2019-Aug-18 21:07N 38°44' W 028°07'1 7.5
2019-Aug-18 20:57N 38°44' W 028°09'3 7.4
2019-Aug-18 20:30N 38°45' W 028°13'3 6.9
2019-Aug-18 20:01N 38°46' W 028°17'3 6.7
2019-Aug-18 19:31N 38°47' W 028°21'4 7.5
2019-Aug-18 19:00N 38°45' W 028°25'4 8.3
2019-Aug-18 18:30N 38°41' W 028°28'4 8.0
2019-Aug-18 18:00N 38°38' W 028°30'4 8.4
2019-Aug-18 17:30N 38°34' W 028°33'3 6.8
2019-Aug-18 17:00N 38°32' W 028°37'1 1.0
2019-Aug-18 16:28N 38°32' W 028°37'0 0.0
2019-Aug-17 16:02N 38°32' W 028°37'0 0.0
2019-Aug-17 15:59N 38°32' W 028°37'0 0.0
2019-Aug-17 15:30N 38°32' W 028°37'0 0.1
2019-Aug-17 15:00N 38°32' W 028°37'2 3.0
2019-Aug-17 14:30N 38°32' W 028°36'3 6.0
2019-Aug-17 14:00N 38°30' W 028°39'4 7.3
2019-Aug-17 13:30N 38°30' W 028°43'4 7.2
2019-Aug-17 13:00N 38°31' W 028°48'103 8.4
2019-Aug-17 00:51N 39°29' W 030°37'15 8.8
2019-Aug-16 23:07N 39°35' W 030°55'3 8.7
2019-Aug-16 22:47N 39°36' W 030°58'3 8.5
2019-Aug-16 22:29N 39°37' W 031°01'4 8.3
2019-Aug-16 22:00N 39°39' W 031°06'1 2.3
2019-Aug-16 21:30N 39°40' W 031°06'50 3.1
2019-Aug-16 05:16N 38°50' W 031°07'  

Dump ship's entire track history